sensor_id;sensor_type;location;lat;lon;timestamp;temperature;humidity
25302;DHT22;13243;50.888;4.724;2023-04-09T00:02:15;7.70;99.90
25302;DHT22;13243;50.888;4.724;2023-04-09T00:07:17;7.80;99.90
25302;DHT22;13243;50.888;4.724;2023-04-09T00:12:19;7.70;99.90
25302;DHT22;13243;50.888;4.724;2023-04-09T00:17:20;7.70;99.90
25302;DHT22;13243;50.888;4.724;2023-04-09T00:22:22;7.60;99.90
25302;DHT22;13243;50.888;4.724;2023-04-09T00:27:24;7.50;99.90
25302;DHT22;13243;50.888;4.724;2023-04-09T00:32:26;7.50;99.90
25302;DHT22;13243;50.888;4.724;2023-04-09T00:37:28;7.50;99.90
25302;DHT22;13243;50.888;4.724;2023-04-09T00:42:33;7.40;99.90
25302;DHT22;13243;50.888;4.724;2023-04-09T00:47:35;7.30;99.90
25302;DHT22;13243;50.888;4.724;2023-04-09T00:52:37;7.30;99.90
25302;DHT22;13243;50.888;4.724;2023-04-09T00:57:39;7.10;99.90
25302;DHT22;13243;50.888;4.724;2023-04-09T01:02:41;7.10;99.90
25302;DHT22;13243;50.888;4.724;2023-04-09T01:08:00;7.20;99.90
25302;DHT22;13243;50.888;4.724;2023-04-09T01:13:23;7.20;99.90
25302;DHT22;13243;50.888;4.724;2023-04-09T01:18:33;7.00;99.90
25302;DHT22;13243;50.888;4.724;2023-04-09T01:23:56;6.80;99.90
25302;DHT22;13243;50.888;4.724;2023-04-09T01:28:59;6.80;99.90
25302;DHT22;13243;50.888;4.724;2023-04-09T01:34:01;6.80;99.90
25302;DHT22;13243;50.888;4.724;2023-04-09T01:39:05;6.80;99.90
25302;DHT22;13243;50.888;4.724;2023-04-09T01:44:08;6.80;99.90
25302;DHT22;13243;50.888;4.724;2023-04-09T01:49:11;6.60;99.90
25302;DHT22;13243;50.888;4.724;2023-04-09T01:54:15;6.70;99.90
25302;DHT22;13243;50.888;4.724;2023-04-09T01:59:17;6.60;99.90
25302;DHT22;13243;50.888;4.724;2023-04-09T02:04:39;6.60;99.90
25302;DHT22;13243;50.888;4.724;2023-04-09T02:09:44;6.50;99.90
25302;DHT22;13243;50.888;4.724;2023-04-09T02:14:49;6.50;99.90
25302;DHT22;13243;50.888;4.724;2023-04-09T02:19:51;6.60;99.90
25302;DHT22;13243;50.888;4.724;2023-04-09T02:24:53;6.60;99.90
25302;DHT22;13243;50.888;4.724;2023-04-09T02:29:55;6.70;99.90
25302;DHT22;13243;50.888;4.724;2023-04-09T02:34:56;6.70;99.90
25302;DHT22;13243;50.888;4.724;2023-04-09T02:39:58;6.80;99.90
25302;DHT22;13243;50.888;4.724;2023-04-09T02:45:00;6.80;99.90
25302;DHT22;13243;50.888;4.724;2023-04-09T02:50:02;6.80;99.90
25302;DHT22;13243;50.888;4.724;2023-04-09T02:55:05;6.60;99.90
25302;DHT22;13243;50.888;4.724;2023-04-09T03:00:07;6.70;99.90
25302;DHT22;13243;50.888;4.724;2023-04-09T03:05:09;6.70;99.90
25302;DHT22;13243;50.888;4.724;2023-04-09T03:10:11;6.70;99.90
25302;DHT22;13243;50.888;4.724;2023-04-09T03:15:13;6.40;99.90
25302;DHT22;13243;50.888;4.724;2023-04-09T03:20:15;6.50;99.90
25302;DHT22;13243;50.888;4.724;2023-04-09T03:25:17;6.40;99.90
25302;DHT22;13243;50.888;4.724;2023-04-09T03:30:21;6.30;99.90
25302;DHT22;13243;50.888;4.724;2023-04-09T03:35:23;6.30;99.90
25302;DHT22;13243;50.888;4.724;2023-04-09T03:40:25;6.40;99.90
25302;DHT22;13243;50.888;4.724;2023-04-09T03:45:28;6.30;99.90
25302;DHT22;13243;50.888;4.724;2023-04-09T03:50:30;6.30;99.90
25302;DHT22;13243;50.888;4.724;2023-04-09T03:55:32;6.30;99.90
25302;DHT22;13243;50.888;4.724;2023-04-09T04:00:34;6.20;99.90
25302;DHT22;13243;50.888;4.724;2023-04-09T04:05:36;6.40;99.90
25302;DHT22;13243;50.888;4.724;2023-04-09T04:10:37;6.50;99.90
25302;DHT22;13243;50.888;4.724;2023-04-09T04:15:40;6.40;99.90
25302;DHT22;13243;50.888;4.724;2023-04-09T04:20:44;6.40;99.90
25302;DHT22;13243;50.888;4.724;2023-04-09T04:25:47;6.30;99.90
25302;DHT22;13243;50.888;4.724;2023-04-09T04:30:49;6.10;99.90
25302;DHT22;13243;50.888;4.724;2023-04-09T04:35:51;5.90;99.90
25302;DHT22;13243;50.888;4.724;2023-04-09T04:40:53;6.20;99.90
25302;DHT22;13243;50.888;4.724;2023-04-09T04:45:55;6.00;99.90
25302;DHT22;13243;50.888;4.724;2023-04-09T04:50:58;5.90;99.90
25302;DHT22;13243;50.888;4.724;2023-04-09T04:56:01;6.00;99.90
25302;DHT22;13243;50.888;4.724;2023-04-09T05:01:02;5.80;99.90
25302;DHT22;13243;50.888;4.724;2023-04-09T05:06:04;5.70;99.90
25302;DHT22;13243;50.888;4.724;2023-04-09T05:11:06;5.80;99.90
25302;DHT22;13243;50.888;4.724;2023-04-09T05:16:15;5.80;99.90
25302;DHT22;13243;50.888;4.724;2023-04-09T05:21:18;5.70;99.90
25302;DHT22;13243;50.888;4.724;2023-04-09T05:26:20;5.80;99.90
25302;DHT22;13243;50.888;4.724;2023-04-09T05:31:23;5.90;99.90
25302;DHT22;13243;50.888;4.724;2023-04-09T05:36:25;5.90;99.90
25302;DHT22;13243;50.888;4.724;2023-04-09T05:41:27;6.00;99.90
25302;DHT22;13243;50.888;4.724;2023-04-09T05:46:29;6.00;99.90
25302;DHT22;13243;50.888;4.724;2023-04-09T05:51:32;6.00;99.90
25302;DHT22;13243;50.888;4.724;2023-04-09T05:56:33;6.00;99.90
25302;DHT22;13243;50.888;4.724;2023-04-09T06:01:35;6.20;99.90
25302;DHT22;13243;50.888;4.724;2023-04-09T06:06:37;6.20;99.90
25302;DHT22;13243;50.888;4.724;2023-04-09T06:11:39;6.40;99.90
25302;DHT22;13243;50.888;4.724;2023-04-09T06:16:41;6.60;99.90
25302;DHT22;13243;50.888;4.724;2023-04-09T06:21:43;6.80;99.90
25302;DHT22;13243;50.888;4.724;2023-04-09T06:26:45;7.00;99.90
25302;DHT22;13243;50.888;4.724;2023-04-09T06:31:47;7.00;99.90
25302;DHT22;13243;50.888;4.724;2023-04-09T06:36:49;7.20;99.90
25302;DHT22;13243;50.888;4.724;2023-04-09T06:41:50;7.30;99.90
25302;DHT22;13243;50.888;4.724;2023-04-09T06:46:53;7.40;99.90
25302;DHT22;13243;50.888;4.724;2023-04-09T06:51:55;7.60;99.90
25302;DHT22;13243;50.888;4.724;2023-04-09T06:56:56;7.80;99.90
25302;DHT22;13243;50.888;4.724;2023-04-09T07:01:59;7.90;99.90
25302;DHT22;13243;50.888;4.724;2023-04-09T07:07:01;8.10;99.90
25302;DHT22;13243;50.888;4.724;2023-04-09T07:12:03;8.20;99.90
25302;DHT22;13243;50.888;4.724;2023-04-09T07:17:05;8.40;99.90
25302;DHT22;13243;50.888;4.724;2023-04-09T07:22:07;8.60;99.90
25302;DHT22;13243;50.888;4.724;2023-04-09T07:27:08;8.70;99.90
25302;DHT22;13243;50.888;4.724;2023-04-09T07:32:10;8.80;99.90
25302;DHT22;13243;50.888;4.724;2023-04-09T07:37:12;9.10;99.90
25302;DHT22;13243;50.888;4.724;2023-04-09T07:42:14;9.20;99.90
25302;DHT22;13243;50.888;4.724;2023-04-09T07:47:16;9.40;99.90
25302;DHT22;13243;50.888;4.724;2023-04-09T07:52:18;9.60;99.90
25302;DHT22;13243;50.888;4.724;2023-04-09T07:57:20;9.70;99.90
25302;DHT22;13243;50.888;4.724;2023-04-09T08:02:22;9.90;99.90
25302;DHT22;13243;50.888;4.724;2023-04-09T08:07:24;10.20;99.90
25302;DHT22;13243;50.888;4.724;2023-04-09T08:12:26;10.30;99.90
25302;DHT22;13243;50.888;4.724;2023-04-09T08:17:28;10.60;99.90
25302;DHT22;13243;50.888;4.724;2023-04-09T08:22:31;10.60;99.90
25302;DHT22;13243;50.888;4.724;2023-04-09T08:27:32;10.90;99.90
25302;DHT22;13243;50.888;4.724;2023-04-09T08:32:35;10.90;99.90
25302;DHT22;13243;50.888;4.724;2023-04-09T08:37:37;11.20;99.90
25302;DHT22;13243;50.888;4.724;2023-04-09T08:42:43;11.30;99.90
25302;DHT22;13243;50.888;4.724;2023-04-09T08:47:49;11.50;99.90
25302;DHT22;13243;50.888;4.724;2023-04-09T08:52:52;11.60;99.90
25302;DHT22;13243;50.888;4.724;2023-04-09T08:57:54;11.70;99.90
25302;DHT22;13243;50.888;4.724;2023-04-09T09:08:02;12.20;99.90
25302;DHT22;13243;50.888;4.724;2023-04-09T09:13:23;12.30;99.90
25302;DHT22;13243;50.888;4.724;2023-04-09T09:18:40;12.40;99.90
25302;DHT22;13243;50.888;4.724;2023-04-09T09:23:43;12.40;99.90
25302;DHT22;13243;50.888;4.724;2023-04-09T09:28:45;12.80;99.90
25302;DHT22;13243;50.888;4.724;2023-04-09T09:33:48;12.90;99.90
25302;DHT22;13243;50.888;4.724;2023-04-09T09:38:53;13.30;99.90
25302;DHT22;13243;50.888;4.724;2023-04-09T09:43:55;13.20;99.90
25302;DHT22;13243;50.888;4.724;2023-04-09T09:48:57;13.00;99.90
25302;DHT22;13243;50.888;4.724;2023-04-09T09:53:59;13.10;99.90
25302;DHT22;13243;50.888;4.724;2023-04-09T10:04:19;13.90;99.90
25302;DHT22;13243;50.888;4.724;2023-04-09T10:09:23;13.90;99.90
25302;DHT22;13243;50.888;4.724;2023-04-09T10:14:27;14.40;99.90
25302;DHT22;13243;50.888;4.724;2023-04-09T10:19:37;14.50;99.90
25302;DHT22;13243;50.888;4.724;2023-04-09T10:24:41;14.60;99.90
25302;DHT22;13243;50.888;4.724;2023-04-09T10:29:45;14.90;99.90
25302;DHT22;13243;50.888;4.724;2023-04-09T10:34:48;15.00;99.90
25302;DHT22;13243;50.888;4.724;2023-04-09T10:39:51;15.30;99.90
25302;DHT22;13243;50.888;4.724;2023-04-09T10:55:37;15.20;99.90
25302;DHT22;13243;50.888;4.724;2023-04-09T11:00:41;15.80;99.90
25302;DHT22;13243;50.888;4.724;2023-04-09T11:05:43;15.80;99.90
25302;DHT22;13243;50.888;4.724;2023-04-09T11:10:47;15.90;99.90
25302;DHT22;13243;50.888;4.724;2023-04-09T11:15:54;16.40;99.90
25302;DHT22;13243;50.888;4.724;2023-04-09T11:21:01;16.40;99.90
25302;DHT22;13243;50.888;4.724;2023-04-09T11:26:04;16.60;99.90
25302;DHT22;13243;50.888;4.724;2023-04-09T11:31:06;16.30;99.90
25302;DHT22;13243;50.888;4.724;2023-04-09T11:36:11;16.80;99.90
25302;DHT22;13243;50.888;4.724;2023-04-09T11:41:13;16.40;99.90
25302;DHT22;13243;50.888;4.724;2023-04-09T11:46:15;16.80;99.90
25302;DHT22;13243;50.888;4.724;2023-04-09T11:51:17;17.20;99.90
25302;DHT22;13243;50.888;4.724;2023-04-09T11:56:19;17.20;99.90
25302;DHT22;13243;50.888;4.724;2023-04-09T12:01:22;17.00;99.90
25302;DHT22;13243;50.888;4.724;2023-04-09T12:06:26;17.80;99.90
25302;DHT22;13243;50.888;4.724;2023-04-09T12:11:29;17.80;99.90
25302;DHT22;13243;50.888;4.724;2023-04-09T12:16:33;17.90;99.90
25302;DHT22;13243;50.888;4.724;2023-04-09T12:26:47;18.50;99.90
25302;DHT22;13243;50.888;4.724;2023-04-09T12:31:49;18.20;99.90
25302;DHT22;13243;50.888;4.724;2023-04-09T12:36:51;18.80;99.90
25302;DHT22;13243;50.888;4.724;2023-04-09T12:41:53;19.20;99.90
25302;DHT22;13243;50.888;4.724;2023-04-09T12:46:55;19.40;99.90
25302;DHT22;13243;50.888;4.724;2023-04-09T12:51:57;19.20;99.90
25302;DHT22;13243;50.888;4.724;2023-04-09T12:56:59;19.40;99.90
25302;DHT22;13243;50.888;4.724;2023-04-09T13:02:01;19.60;99.90
25302;DHT22;13243;50.888;4.724;2023-04-09T13:07:03;19.80;99.90
25302;DHT22;13243;50.888;4.724;2023-04-09T13:12:04;20.10;99.90
25302;DHT22;13243;50.888;4.724;2023-04-09T13:17:07;20.50;99.90
25302;DHT22;13243;50.888;4.724;2023-04-09T13:22:09;20.20;99.90
25302;DHT22;13243;50.888;4.724;2023-04-09T13:27:11;20.80;99.90
25302;DHT22;13243;50.888;4.724;2023-04-09T13:32:13;20.10;99.90
25302;DHT22;13243;50.888;4.724;2023-04-09T13:37:15;20.10;99.90
25302;DHT22;13243;50.888;4.724;2023-04-09T13:42:17;20.00;99.90
25302;DHT22;13243;50.888;4.724;2023-04-09T13:47:19;20.30;99.90
25302;DHT22;13243;50.888;4.724;2023-04-09T13:52:23;20.90;99.90
25302;DHT22;13243;50.888;4.724;2023-04-09T13:57:29;21.00;99.90
25302;DHT22;13243;50.888;4.724;2023-04-09T14:02:31;20.00;99.90
25302;DHT22;13243;50.888;4.724;2023-04-09T14:07:34;19.20;99.90
25302;DHT22;13243;50.888;4.724;2023-04-09T14:12:35;18.70;99.90
25302;DHT22;13243;50.888;4.724;2023-04-09T14:17:38;19.20;99.90
25302;DHT22;13243;50.888;4.724;2023-04-09T14:22:40;18.90;99.90
25302;DHT22;13243;50.888;4.724;2023-04-09T14:27:43;18.40;99.90
25302;DHT22;13243;50.888;4.724;2023-04-09T14:32:45;18.30;99.90
25302;DHT22;13243;50.888;4.724;2023-04-09T14:37:47;18.80;99.90
25302;DHT22;13243;50.888;4.724;2023-04-09T14:42:49;19.10;99.90
25302;DHT22;13243;50.888;4.724;2023-04-09T14:47:51;20.60;99.90
25302;DHT22;13243;50.888;4.724;2023-04-09T14:52:53;21.00;99.90
25302;DHT22;13243;50.888;4.724;2023-04-09T14:57:54;21.30;99.90
25302;DHT22;13243;50.888;4.724;2023-04-09T15:02:57;21.60;99.90
25302;DHT22;13243;50.888;4.724;2023-04-09T15:07:59;22.50;99.90
25302;DHT22;13243;50.888;4.724;2023-04-09T15:13:01;21.90;99.90
25302;DHT22;13243;50.888;4.724;2023-04-09T15:18:03;20.50;99.90
25302;DHT22;13243;50.888;4.724;2023-04-09T15:23:07;19.80;99.90
25302;DHT22;13243;50.888;4.724;2023-04-09T15:28:08;19.00;99.90
25302;DHT22;13243;50.888;4.724;2023-04-09T15:33:11;18.90;99.90
25302;DHT22;13243;50.888;4.724;2023-04-09T15:38:13;18.90;99.90
25302;DHT22;13243;50.888;4.724;2023-04-09T15:43:16;19.50;99.90
25302;DHT22;13243;50.888;4.724;2023-04-09T15:48:18;19.50;99.90
25302;DHT22;13243;50.888;4.724;2023-04-09T15:53:20;18.70;99.90
25302;DHT22;13243;50.888;4.724;2023-04-09T15:58:24;18.50;99.90
25302;DHT22;13243;50.888;4.724;2023-04-09T16:03:26;18.40;99.90
25302;DHT22;13243;50.888;4.724;2023-04-09T16:08:28;18.40;99.90
25302;DHT22;13243;50.888;4.724;2023-04-09T16:13:30;18.30;99.90
25302;DHT22;13243;50.888;4.724;2023-04-09T16:18:32;18.30;99.90
25302;DHT22;13243;50.888;4.724;2023-04-09T16:23:34;18.20;99.90
25302;DHT22;13243;50.888;4.724;2023-04-09T16:28:36;18.40;99.90
25302;DHT22;13243;50.888;4.724;2023-04-09T16:33:37;18.50;99.90
25302;DHT22;13243;50.888;4.724;2023-04-09T16:38:39;18.80;99.90
25302;DHT22;13243;50.888;4.724;2023-04-09T16:43:42;19.10;99.90
25302;DHT22;13243;50.888;4.724;2023-04-09T16:48:43;19.60;99.90
25302;DHT22;13243;50.888;4.724;2023-04-09T16:53:45;19.70;99.90
25302;DHT22;13243;50.888;4.724;2023-04-09T16:58:47;18.80;99.90
25302;DHT22;13243;50.888;4.724;2023-04-09T17:03:49;19.10;99.90
25302;DHT22;13243;50.888;4.724;2023-04-09T17:08:51;18.40;99.90
25302;DHT22;13243;50.888;4.724;2023-04-09T17:13:54;18.30;99.90
25302;DHT22;13243;50.888;4.724;2023-04-09T17:18:56;18.60;99.90
25302;DHT22;13243;50.888;4.724;2023-04-09T17:23:58;18.10;99.90
25302;DHT22;13243;50.888;4.724;2023-04-09T17:29:02;17.60;99.90
25302;DHT22;13243;50.888;4.724;2023-04-09T17:34:04;17.40;99.90
25302;DHT22;13243;50.888;4.724;2023-04-09T17:39:06;17.20;99.90
25302;DHT22;13243;50.888;4.724;2023-04-09T17:44:07;17.10;99.90
25302;DHT22;13243;50.888;4.724;2023-04-09T17:49:09;16.90;99.90
25302;DHT22;13243;50.888;4.724;2023-04-09T17:54:11;16.70;99.90
25302;DHT22;13243;50.888;4.724;2023-04-09T17:59:13;16.60;99.90
25302;DHT22;13243;50.888;4.724;2023-04-09T18:04:15;16.30;99.90
25302;DHT22;13243;50.888;4.724;2023-04-09T18:09:18;16.10;99.90
25302;DHT22;13243;50.888;4.724;2023-04-09T18:14:20;16.00;99.90
25302;DHT22;13243;50.888;4.724;2023-04-09T18:19:22;15.70;99.90
25302;DHT22;13243;50.888;4.724;2023-04-09T18:24:24;15.60;99.90
25302;DHT22;13243;50.888;4.724;2023-04-09T18:29:28;15.40;99.90
25302;DHT22;13243;50.888;4.724;2023-04-09T18:34:30;15.30;99.90
25302;DHT22;13243;50.888;4.724;2023-04-09T18:39:35;15.10;99.90
25302;DHT22;13243;50.888;4.724;2023-04-09T18:44:38;15.00;99.90
25302;DHT22;13243;50.888;4.724;2023-04-09T18:49:40;14.80;99.90
25302;DHT22;13243;50.888;4.724;2023-04-09T18:54:42;14.50;99.90
25302;DHT22;13243;50.888;4.724;2023-04-09T18:59:45;14.20;99.90
25302;DHT22;13243;50.888;4.724;2023-04-09T19:04:47;14.10;99.90
25302;DHT22;13243;50.888;4.724;2023-04-09T19:09:49;13.80;99.90
25302;DHT22;13243;50.888;4.724;2023-04-09T19:14:51;13.70;99.90
25302;DHT22;13243;50.888;4.724;2023-04-09T19:19:54;13.40;99.90
25302;DHT22;13243;50.888;4.724;2023-04-09T19:24:56;13.40;99.90
25302;DHT22;13243;50.888;4.724;2023-04-09T19:29:58;13.40;99.90
25302;DHT22;13243;50.888;4.724;2023-04-09T19:35:01;13.30;99.90
25302;DHT22;13243;50.888;4.724;2023-04-09T19:40:04;13.10;99.90
25302;DHT22;13243;50.888;4.724;2023-04-09T19:45:07;13.10;99.90
25302;DHT22;13243;50.888;4.724;2023-04-09T19:50:09;13.00;99.90
25302;DHT22;13243;50.888;4.724;2023-04-09T19:55:11;13.00;99.90
25302;DHT22;13243;50.888;4.724;2023-04-09T20:00:13;12.80;99.90
25302;DHT22;13243;50.888;4.724;2023-04-09T20:05:15;12.80;99.90
25302;DHT22;13243;50.888;4.724;2023-04-09T20:10:21;12.80;99.90
25302;DHT22;13243;50.888;4.724;2023-04-09T20:15:23;13.00;99.90
25302;DHT22;13243;50.888;4.724;2023-04-09T20:20:25;13.20;99.90
25302;DHT22;13243;50.888;4.724;2023-04-09T20:25:27;13.60;99.90
25302;DHT22;13243;50.888;4.724;2023-04-09T20:30:34;13.80;99.90
25302;DHT22;13243;50.888;4.724;2023-04-09T20:35:37;13.80;99.90
25302;DHT22;13243;50.888;4.724;2023-04-09T20:40:39;13.90;99.90
25302;DHT22;13243;50.888;4.724;2023-04-09T20:45:41;13.90;99.90
25302;DHT22;13243;50.888;4.724;2023-04-09T20:50:42;13.80;99.90
25302;DHT22;13243;50.888;4.724;2023-04-09T20:55:44;13.70;99.90
25302;DHT22;13243;50.888;4.724;2023-04-09T21:00:47;13.70;99.90
25302;DHT22;13243;50.888;4.724;2023-04-09T21:05:48;13.60;99.90
25302;DHT22;13243;50.888;4.724;2023-04-09T21:10:50;13.60;99.90
25302;DHT22;13243;50.888;4.724;2023-04-09T21:15:52;13.50;99.90
25302;DHT22;13243;50.888;4.724;2023-04-09T21:20:54;13.40;99.90
25302;DHT22;13243;50.888;4.724;2023-04-09T21:25:56;13.40;99.90
25302;DHT22;13243;50.888;4.724;2023-04-09T21:30:58;13.30;99.90
25302;DHT22;13243;50.888;4.724;2023-04-09T21:36:00;13.20;99.90
25302;DHT22;13243;50.888;4.724;2023-04-09T21:41:04;13.20;99.90
25302;DHT22;13243;50.888;4.724;2023-04-09T21:46:06;13.10;99.90
25302;DHT22;13243;50.888;4.724;2023-04-09T21:51:09;12.90;99.90
25302;DHT22;13243;50.888;4.724;2023-04-09T21:56:11;13.00;99.90
25302;DHT22;13243;50.888;4.724;2023-04-09T22:01:12;12.80;99.90
25302;DHT22;13243;50.888;4.724;2023-04-09T22:06:29;12.70;99.90
25302;DHT22;13243;50.888;4.724;2023-04-09T22:11:31;12.70;99.90
25302;DHT22;13243;50.888;4.724;2023-04-09T22:16:34;12.60;99.90
25302;DHT22;13243;50.888;4.724;2023-04-09T22:21:37;12.50;99.90
25302;DHT22;13243;50.888;4.724;2023-04-09T22:26:38;12.50;99.90
25302;DHT22;13243;50.888;4.724;2023-04-09T22:31:43;12.40;99.90
25302;DHT22;13243;50.888;4.724;2023-04-09T22:36:45;12.30;99.90
25302;DHT22;13243;50.888;4.724;2023-04-09T22:41:47;12.30;99.90
25302;DHT22;13243;50.888;4.724;2023-04-09T22:46:49;12.20;99.90
25302;DHT22;13243;50.888;4.724;2023-04-09T22:51:51;12.20;99.90
25302;DHT22;13243;50.888;4.724;2023-04-09T22:56:53;12.10;99.90
25302;DHT22;13243;50.888;4.724;2023-04-09T23:01:57;12.00;99.90
25302;DHT22;13243;50.888;4.724;2023-04-09T23:06:59;12.00;99.90
25302;DHT22;13243;50.888;4.724;2023-04-09T23:12:01;11.90;99.90
25302;DHT22;13243;50.888;4.724;2023-04-09T23:17:03;11.80;99.90
25302;DHT22;13243;50.888;4.724;2023-04-09T23:22:05;11.60;99.90
25302;DHT22;13243;50.888;4.724;2023-04-09T23:27:07;11.60;99.90
25302;DHT22;13243;50.888;4.724;2023-04-09T23:32:09;11.60;99.90
25302;DHT22;13243;50.888;4.724;2023-04-09T23:37:11;11.50;99.90
25302;DHT22;13243;50.888;4.724;2023-04-09T23:42:13;11.50;99.90
25302;DHT22;13243;50.888;4.724;2023-04-09T23:47:14;11.40;99.90
25302;DHT22;13243;50.888;4.724;2023-04-09T23:52:17;11.50;99.90
25302;DHT22;13243;50.888;4.724;2023-04-09T23:57:18;11.50;99.90
